Time;durP1;ratioP1;P1;durP2;ratioP2;P2;SDS_P1;SDS_P2;PMS_P1;PMS_P2;Temp;Humidity;BMP_temperature;BMP_pressure;BME280_temperature;BME280_humidity;BME280_pressure;Samples;Min_cycle;Max_cycle;Signal;HPM_P1;HPM_P2
2020/12/05 00:00:55;;;;;;;24.73;13.68;;;3.30;99.80;;;;;;5047157;28;20232;-86
2020/12/05 00:03:22;;;;;;;25.35;14.90;;;3.30;99.80;;;;;;5048841;28;20763;-86
2020/12/05 00:05:49;;;;;;;31.52;14.75;;;3.30;99.80;;;;;;5046792;28;20656;-86
2020/12/05 00:08:16;;;;;;;33.03;15.57;;;3.20;99.80;;;;;;5045947;28;20265;-86
2020/12/05 00:10:44;;;;;;;37.78;16.17;;;3.20;99.80;;;;;;5036092;28;20232;-86
2020/12/05 00:13:10;;;;;;;29.20;16.05;;;3.20;99.80;;;;;;5026871;28;20220;-86
2020/12/05 00:15:37;;;;;;;30.52;16.52;;;3.20;99.80;;;;;;5033749;28;20231;-86
2020/12/05 00:18:13;;;;;;;27.00;13.10;;;3.20;99.80;;;;;;5047839;28;20292;-86
2020/12/05 00:20:41;;;;;;;30.17;15.25;;;3.20;99.80;;;;;;5043419;28;20220;-86
2020/12/05 00:23:08;;;;;;;34.50;17.05;;;3.30;99.80;;;;;;5040448;28;20237;-86
2020/12/05 00:25:35;;;;;;;26.15;15.57;;;3.30;99.80;;;;;;5044252;28;20220;-87
2020/12/05 00:28:02;;;;;;;29.98;14.68;;;3.30;99.80;;;;;;5033401;28;20613;-87
2020/12/05 00:30:29;;;;;;;33.17;16.10;;;3.30;99.80;;;;;;5024723;28;20306;-86
2020/12/05 00:33:01;;;;;;;26.60;14.05;;;3.30;99.80;;;;;;5029441;28;20344;-86
2020/12/05 00:35:29;;;;;;;24.55;15.10;;;3.20;99.80;;;;;;5052151;28;20252;-86
2020/12/05 00:37:57;;;;;;;26.65;14.88;;;3.20;99.80;;;;;;5046719;28;20241;-87
2020/12/05 00:40:24;;;;;;;23.88;14.18;;;3.20;99.80;;;;;;5031393;28;20257;-86
2020/12/05 00:42:51;;;;;;;28.02;14.07;;;3.20;99.80;;;;;;5036743;28;20314;-86
2020/12/05 00:45:18;;;;;;;31.55;15.55;;;3.30;99.80;;;;;;5021293;28;20235;-86
2020/12/05 00:47:45;;;;;;;26.48;15.65;;;3.30;99.80;;;;;;5036156;28;20606;-86
2020/12/05 00:50:13;;;;;;;32.28;16.05;;;3.30;99.80;;;;;;5056118;28;20225;-86
2020/12/05 00:52:40;;;;;;;36.10;18.23;;;3.30;99.80;;;;;;5035224;28;20225;-86
2020/12/05 00:55:08;;;;;;;32.92;16.92;;;3.30;99.80;;;;;;5042953;28;20588;-86
2020/12/05 00:57:35;;;;;;;33.55;17.33;;;3.30;99.80;;;;;;5032389;28;20660;-86
2020/12/05 01:00:02;;;;;;;27.10;16.50;;;3.40;99.80;;;;;;5024386;28;20271;-86
2020/12/05 01:02:29;;;;;;;31.00;16.02;;;3.40;99.80;;;;;;5031004;28;20666;-86
2020/12/05 01:04:58;;;;;;;33.53;16.60;;;3.40;99.80;;;;;;5046966;28;20225;-86
2020/12/05 01:07:27;;;;;;;27.83;16.10;;;3.40;99.80;;;;;;5048024;28;20233;-85
2020/12/05 01:09:54;;;;;;;30.55;16.45;;;3.40;99.80;;;;;;5045738;28;20802;-86
2020/12/05 01:12:24;;;;;;;27.48;15.05;;;3.40;99.80;;;;;;5047242;28;20228;-86
2020/12/05 01:14:51;;;;;;;33.50;17.38;;;3.30;99.80;;;;;;5043900;28;20222;-87
2020/12/05 01:17:23;;;;;;;28.92;17.95;;;3.30;99.80;;;;;;5031666;28;20233;-86
2020/12/05 01:19:52;;;;;;;28.65;17.50;;;3.30;99.80;;;;;;5045533;28;20973;-86
2020/12/05 01:22:20;;;;;;;29.80;16.80;;;3.20;99.80;;;;;;5041977;28;20226;-86
2020/12/05 01:24:47;;;;;;;29.33;15.80;;;;;;;;;;4997413;28;20572;-86
2020/12/05 01:27:14;;;;;;;30.85;16.60;;;3.20;99.80;;;;;;5004913;28;20485;-86
2020/12/05 01:29:43;;;;;;;29.83;17.00;;;3.10;99.80;;;;;;5026351;28;20237;-85
2020/12/05 01:32:10;;;;;;;30.13;17.30;;;3.10;99.80;;;;;;5014682;28;20235;-85
2020/12/05 01:34:37;;;;;;;36.20;17.90;;;3.10;99.80;;;;;;5037714;28;20689;-86
2020/12/05 01:37:07;;;;;;;27.80;16.48;;;3.00;99.80;;;;;;5026008;28;20234;-85
2020/12/05 01:39:34;;;;;;;31.27;15.98;;;2.90;99.80;;;;;;5030808;28;20234;-85
2020/12/05 01:42:01;;;;;;;36.33;17.52;;;2.90;99.80;;;;;;5029744;28;20646;-85
2020/12/05 01:44:28;;;;;;;30.70;15.93;;;2.80;99.80;;;;;;5029314;28;20258;-85
2020/12/05 01:46:57;;;;;;;31.52;17.25;;;2.80;99.80;;;;;;5029085;28;20226;-85
2020/12/05 01:49:25;;;;;;;30.92;16.83;;;2.70;99.80;;;;;;5028981;28;20230;-85
2020/12/05 01:51:52;;;;;;;28.27;16.55;;;2.70;99.80;;;;;;5023264;28;20241;-86
2020/12/05 01:54:19;;;;;;;30.45;17.35;;;2.70;99.80;;;;;;5024696;28;20773;-85
2020/12/05 01:56:57;;;;;;;32.38;18.00;;;2.60;99.80;;;;;;5024718;28;20239;-85
2020/12/05 01:59:24;;;;;;;28.90;16.30;;;2.50;99.80;;;;;;5008149;28;20233;-86
2020/12/05 02:01:52;;;;;;;31.98;16.98;;;2.50;99.80;;;;;;5024108;28;20235;-87
2020/12/05 02:04:20;;;;;;;30.25;17.30;;;2.40;99.80;;;;;;5022651;28;20227;-85
2020/12/05 02:07:00;;;;;;;32.30;16.70;;;2.40;99.80;;;;;;5003052;28;20710;-85
2020/12/05 02:09:32;;;;;;;27.05;16.23;;;2.30;99.80;;;;;;5035051;28;20223;-86
2020/12/05 02:12:04;;;;;;;30.25;17.27;;;2.30;99.80;;;;;;5013284;28;20284;-86
2020/12/05 02:14:35;;;;;;;26.88;16.27;;;2.20;99.80;;;;;;5017509;28;20225;-86
2020/12/05 02:17:04;;;;;;;30.52;18.60;;;2.20;99.80;;;;;;5013664;28;20260;-86
2020/12/05 02:19:42;;;;;;;39.30;19.50;;;2.20;99.80;;;;;;5030546;28;20229;-86
2020/12/05 02:22:12;;;;;;;31.23;17.50;;;2.20;99.80;;;;;;5028489;28;20221;-86
2020/12/05 02:24:40;;;;;;;35.13;18.63;;;2.20;99.80;;;;;;5031056;28;20246;-86
2020/12/05 02:27:09;;;;;;;32.88;17.38;;;2.20;99.80;;;;;;5025795;28;20233;-86
2020/12/05 02:29:36;;;;;;;32.22;18.70;;;2.10;99.80;;;;;;5020860;28;20315;-86
2020/12/05 02:32:04;;;;;;;37.33;19.30;;;2.10;99.80;;;;;;5007742;28;20225;-86
2020/12/05 02:34:32;;;;;;;31.83;17.95;;;2.10;99.80;;;;;;5032488;28;20970;-85
2020/12/05 02:37:05;;;;;;;40.28;20.05;;;2.10;99.80;;;;;;5008430;28;20233;-86
2020/12/05 02:39:32;;;;;;;28.77;16.48;;;2.10;99.80;;;;;;5011881;28;20600;-85
2020/12/05 02:42:01;;;;;;;36.20;19.42;;;2.10;99.80;;;;;;5011112;28;20229;-86
2020/12/05 02:44:28;;;;;;;35.53;19.23;;;2.10;99.80;;;;;;5017392;28;20303;-86
2020/12/05 02:46:58;;;;;;;35.05;17.95;;;2.10;99.80;;;;;;5011860;28;20256;-86
2020/12/05 02:49:25;;;;;;;35.47;19.30;;;2.10;99.80;;;;;;5037264;28;20221;-86
2020/12/05 02:51:52;;;;;;;33.55;17.65;;;2.00;99.80;;;;;;5026590;28;20313;-86
2020/12/05 02:54:19;;;;;;;38.83;18.80;;;2.00;99.80;;;;;;5027300;28;20606;-86
2020/12/05 02:56:46;;;;;;;34.05;17.60;;;2.00;99.80;;;;;;5021650;28;20234;-86
2020/12/05 02:59:14;;;;;;;31.52;17.70;;;2.00;99.80;;;;;;5021918;28;20226;-86
2020/12/05 03:01:41;;;;;;;32.35;17.77;;;2.10;99.80;;;;;;5039038;28;20236;-87
2020/12/05 03:04:08;;;;;;;34.03;18.42;;;2.10;99.80;;;;;;5034060;28;20221;-86
2020/12/05 03:06:35;;;;;;;36.65;19.63;;;2.10;99.80;;;;;;5031693;28;20216;-87
2020/12/05 03:09:02;;;;;;;29.98;17.35;;;2.10;99.80;;;;;;5032183;28;20235;-86
2020/12/05 03:11:29;;;;;;;27.33;16.88;;;2.10;99.80;;;;;;5032339;28;20205;-87
2020/12/05 03:13:57;;;;;;;36.15;18.55;;;2.00;99.80;;;;;;5032068;28;20656;-86
2020/12/05 03:16:25;;;;;;;34.78;17.73;;;2.00;99.80;;;;;;5032049;28;20288;-86
2020/12/05 03:18:52;;;;;;;36.75;16.35;;;2.00;99.80;;;;;;5019749;28;20237;-86
2020/12/05 03:21:19;;;;;;;28.20;16.27;;;2.00;99.80;;;;;;5007845;28;20709;-86
2020/12/05 03:23:46;;;;;;;29.30;16.98;;;1.90;99.80;;;;;;5005116;28;20322;-86
2020/12/05 03:26:13;;;;;;;26.55;16.60;;;1.90;99.80;;;;;;5011287;28;20231;-85
2020/12/05 03:28:41;;;;;;;39.72;17.38;;;2.00;99.80;;;;;;5003209;28;20236;-86
2020/12/05 03:31:11;;;;;;;32.72;17.38;;;2.00;99.80;;;;;;5026125;28;20231;-86
2020/12/05 03:33:41;;;;;;;33.15;18.90;;;2.00;99.80;;;;;;5019413;28;20221;-86
2020/12/05 03:36:08;;;;;;;29.35;16.25;;;2.00;99.80;;;;;;5018686;28;20240;-86
2020/12/05 03:38:35;;;;;;;30.60;16.13;;;2.00;99.80;;;;;;5001364;28;20232;-87
2020/12/05 03:41:02;;;;;;;29.70;16.70;;;2.00;99.80;;;;;;5026439;28;20307;-86
2020/12/05 03:43:29;;;;;;;28.23;15.23;;;2.00;99.80;;;;;;5008340;28;20224;-86
2020/12/05 03:45:56;;;;;;;29.98;16.30;;;2.00;99.80;;;;;;5008699;28;20233;-86
2020/12/05 03:48:24;;;;;;;29.27;16.17;;;2.00;99.80;;;;;;5025130;28;20322;-86
2020/12/05 03:50:53;;;;;;;29.25;14.77;;;2.00;99.80;;;;;;5031766;28;20233;-87
2020/12/05 03:53:20;;;;;;;34.38;17.08;;;2.00;99.80;;;;;;5028327;28;20232;-86
2020/12/05 03:55:48;;;;;;;33.38;15.93;;;2.00;99.80;;;;;;5028727;28;20235;-86
2020/12/05 03:58:15;;;;;;;35.20;17.35;;;2.00;99.80;;;;;;5027668;28;20229;-86
2020/12/05 04:00:41;;;;;;;30.35;17.02;;;2.00;99.80;;;;;;5027503;28;20229;-86
2020/12/05 04:03:08;;;;;;;35.63;17.67;;;2.00;99.80;;;;;;5028596;28;20669;-86
2020/12/05 04:05:35;;;;;;;34.30;17.98;;;2.00;99.80;;;;;;5027595;28;20244;-87
2020/12/05 04:08:03;;;;;;;29.15;17.60;;;1.90;99.80;;;;;;5037174;28;20260;-86
2020/12/05 04:10:36;;;;;;;40.45;18.02;;;1.90;99.80;;;;;;5048041;28;20232;-86
2020/12/05 04:13:03;;;;;;;33.83;17.98;;;1.90;99.80;;;;;;5038099;28;20228;-86
2020/12/05 04:15:30;;;;;;;31.63;17.92;;;1.90;99.80;;;;;;5047460;28;20225;-87
2020/12/05 04:17:57;;;;;;;35.50;18.13;;;1.90;99.80;;;;;;5056967;28;20240;-86
2020/12/05 04:20:24;;;;;;;39.97;20.42;;;1.80;99.80;;;;;;5067992;28;20267;-86
2020/12/05 04:22:54;;;;;;;33.15;16.50;;;1.90;99.80;;;;;;5067588;28;20278;-87
2020/12/05 04:25:23;;;;;;;30.42;16.48;;;1.90;99.80;;;;;;5066575;28;20235;-87
2020/12/05 04:27:51;;;;;;;28.17;16.00;;;1.90;99.80;;;;;;5068020;28;20719;-87
2020/12/05 04:30:18;;;;;;;28.63;16.20;;;1.80;99.80;;;;;;5047436;28;20232;-86
2020/12/05 04:32:45;;;;;;;30.00;16.88;;;1.80;99.80;;;;;;5047252;28;20225;-86
2020/12/05 04:35:12;;;;;;;26.50;17.00;;;1.80;99.80;;;;;;5047517;28;20759;-87
2020/12/05 04:37:39;;;;;;;31.88;16.70;;;1.80;99.80;;;;;;5047629;28;20232;-86
2020/12/05 04:40:06;;;;;;;28.05;15.45;;;1.70;99.80;;;;;;5046423;28;20597;-87
2020/12/05 04:42:42;;;;;;;33.20;17.60;;;1.80;99.80;;;;;;5030732;28;20570;-87
2020/12/05 04:45:09;;;;;;;29.30;16.00;;;1.80;99.80;;;;;;5014517;28;20226;-87
2020/12/05 04:47:39;;;;;;;25.73;16.00;;;1.70;99.80;;;;;;5006132;28;20776;-87
2020/12/05 04:50:07;;;;;;;30.40;16.88;;;1.70;99.80;;;;;;5005655;28;20543;-87
2020/12/05 04:52:46;;;;;;;31.00;16.65;;;1.70;99.80;;;;;;5006598;28;20230;-87
2020/12/05 04:55:13;;;;;;;32.45;15.82;;;1.70;99.80;;;;;;5009075;28;20231;-87
2020/12/05 04:57:45;;;;;;;32.85;17.17;;;1.80;99.80;;;;;;5025543;28;20684;-87
2020/12/05 05:00:13;;;;;;;33.50;16.77;;;1.80;99.80;;;;;;5025794;28;20630;-87
2020/12/05 05:02:42;;;;;;;38.30;17.80;;;1.80;99.80;;;;;;5025890;28;20229;-87
2020/12/05 05:05:12;;;;;;;28.40;16.05;;;1.80;99.80;;;;;;5021013;28;20233;-88
2020/12/05 05:07:49;;;;;;;36.28;17.38;;;1.80;99.80;;;;;;5014361;28;20708;-87
2020/12/05 05:10:19;;;;;;;36.63;17.85;;;1.90;99.80;;;;;;5010110;28;20223;-87
2020/12/05 05:12:47;;;;;;;28.55;16.38;;;1.90;99.80;;;;;;5009624;28;20685;-87
2020/12/05 05:15:28;;;;;;;33.55;16.42;;;1.90;99.80;;;;;;5014055;28;20221;-87
2020/12/05 05:17:58;;;;;;;30.60;16.60;;;1.90;99.80;;;;;;5025517;28;20239;-87
2020/12/05 05:20:26;;;;;;;33.58;16.77;;;1.90;99.80;;;;;;5005585;28;20784;-87
2020/12/05 05:23:08;;;;;;;30.45;16.50;;;1.90;99.80;;;;;;5030953;28;20305;-87
2020/12/05 05:25:56;;;;;;;30.40;16.05;;;1.90;99.80;;;;;;5054397;28;20230;-87
2020/12/05 05:28:30;;;;;;;29.25;16.63;;;1.90;99.80;;;;;;5005036;28;20698;-87
2020/12/05 05:31:07;;;;;;;31.27;16.83;;;1.90;99.80;;;;;;4994432;28;20322;-88
2020/12/05 05:33:46;;;;;;;35.30;16.40;;;1.90;99.80;;;;;;5023593;28;20727;-87
2020/12/05 05:36:18;;;;;;;28.15;15.75;;;1.90;99.80;;;;;;5029886;28;20229;-88
2020/12/05 05:38:57;;;;;;;27.20;15.88;;;1.90;99.80;;;;;;5027079;28;20291;-87
2020/12/05 05:41:24;;;;;;;34.33;16.63;;;1.90;99.80;;;;;;5025043;28;20231;-87
2020/12/05 05:43:59;;;;;;;33.05;17.02;;;1.90;99.80;;;;;;5030463;28;20599;-88
2020/12/05 05:46:28;;;;;;;33.38;17.50;;;2.00;99.80;;;;;;5029676;28;20232;-88
2020/12/05 05:48:56;;;;;;;34.08;16.30;;;1.90;99.80;;;;;;5020479;28;20226;-87
2020/12/05 05:51:43;;;;;;;33.60;17.45;;;1.90;99.80;;;;;;5010554;28;20226;-87
2020/12/05 05:54:16;;;;;;;38.65;18.33;;;1.90;99.80;;;;;;4985647;28;20232;-87
2020/12/05 05:57:03;;;;;;;33.15;17.35;;;1.90;99.80;;;;;;5001447;28;20229;-87
2020/12/05 05:59:32;;;;;;;31.48;16.83;;;2.00;99.80;;;;;;5000846;28;20337;-87
2020/12/05 06:02:01;;;;;;;34.85;17.33;;;2.00;99.80;;;;;;4999092;28;20745;-87
2020/12/05 06:04:33;;;;;;;35.45;17.70;;;2.00;99.80;;;;;;5040110;28;20308;-87
2020/12/05 06:07:02;;;;;;;32.97;17.27;;;2.00;99.80;;;;;;5030091;28;20222;-87
2020/12/05 06:09:42;;;;;;;35.85;18.92;;;2.00;99.80;;;;;;5029212;28;20235;-87
2020/12/05 06:12:11;;;;;;;34.78;17.85;;;2.00;99.80;;;;;;5029735;28;20251;-87
2020/12/05 06:14:42;;;;;;;42.38;19.52;;;2.00;99.80;;;;;;5028612;28;20656;-87
2020/12/05 06:17:09;;;;;;;37.88;17.98;;;2.00;99.80;;;;;;5029949;28;20708;-86
2020/12/05 06:19:39;;;;;;;31.02;17.15;;;2.10;99.80;;;;;;5030095;28;20233;-88
2020/12/05 06:22:18;;;;;;;42.55;19.98;;;2.10;99.80;;;;;;5008309;28;20234;-87
2020/12/05 06:24:52;;;;;;;33.00;16.80;;;2.10;99.80;;;;;;5021470;28;20245;-87
2020/12/05 06:27:21;;;;;;;40.05;18.40;;;2.10;99.80;;;;;;5007752;28;20240;-87
2020/12/05 06:29:49;;;;;;;40.85;19.25;;;2.10;99.80;;;;;;5021444;28;20236;-87
2020/12/05 06:32:38;;;;;;;35.17;18.30;;;2.10;99.80;;;;;;5022153;28;20225;-87
2020/12/05 06:35:05;;;;;;;32.25;18.05;;;2.10;99.80;;;;;;5019993;28;20214;-87
2020/12/05 06:37:34;;;;;;;37.75;17.83;;;2.10;99.80;;;;;;5030345;28;20878;-87
2020/12/05 06:40:03;;;;;;;34.17;17.40;;;2.10;99.80;;;;;;5029140;28;20231;-86
2020/12/05 06:42:38;;;;;;;33.20;18.27;;;2.10;99.80;;;;;;5029417;28;20756;-86
2020/12/05 06:45:07;;;;;;;38.10;19.75;;;2.10;99.80;;;;;;5029563;28;20239;-87
2020/12/05 06:47:34;;;;;;;39.60;19.25;;;2.10;99.80;;;;;;5029035;28;20239;-86
2020/12/05 06:50:01;;;;;;;36.15;17.98;;;2.00;99.80;;;;;;5020787;28;20226;-85
2020/12/05 06:52:36;;;;;;;37.95;17.80;;;2.10;99.80;;;;;;5016643;28;20310;-85
2020/12/05 06:55:09;;;;;;;35.28;17.65;;;2.00;99.80;;;;;;5014231;28;20228;-85
2020/12/05 06:57:38;;;;;;;36.72;17.52;;;2.00;99.80;;;;;;5008645;28;20229;-85
2020/12/05 07:00:23;;;;;;;34.83;18.13;;;2.10;99.80;;;;;;5023020;28;20235;-86
2020/12/05 07:02:58;;;;;;;39.33;20.23;;;2.10;99.80;;;;;;5023228;28;20332;-85
2020/12/05 07:05:27;;;;;;;31.92;17.88;;;2.10;99.80;;;;;;5029746;28;20232;-85
2020/12/05 07:07:56;;;;;;;32.05;18.30;;;2.10;99.80;;;;;;5029003;28;20700;-85
2020/12/05 07:10:48;;;;;;;31.75;16.45;;;2.20;99.80;;;;;;5028284;28;20233;-85
2020/12/05 07:13:17;;;;;;;37.33;18.67;;;2.20;99.80;;;;;;5029693;28;20220;-85
2020/12/05 07:15:45;;;;;;;39.58;19.45;;;2.20;99.80;;;;;;5027977;28;20243;-85
2020/12/05 07:18:19;;;;;;;33.13;18.10;;;2.20;99.80;;;;;;5028872;28;20261;-85
2020/12/05 07:20:46;;;;;;;35.40;18.15;;;2.20;99.80;;;;;;5027622;28;20228;-85
2020/12/05 07:23:13;;;;;;;31.95;17.88;;;2.30;99.80;;;;;;5023516;28;20311;-84
2020/12/05 07:25:40;;;;;;;32.50;17.15;;;2.30;99.80;;;;;;4986880;28;20267;-85
2020/12/05 07:28:08;;;;;;;32.65;17.63;;;2.30;99.80;;;;;;4988598;28;20240;-84
2020/12/05 07:30:35;;;;;;;31.67;16.25;;;2.30;99.80;;;;;;5027078;28;20225;-85
2020/12/05 07:33:06;;;;;;;34.20;17.70;;;2.30;99.80;;;;;;5009417;28;20233;-84
2020/12/05 07:35:35;;;;;;;31.67;17.83;;;2.30;99.80;;;;;;5016343;28;20231;-83
2020/12/05 07:38:11;;;;;;;30.98;15.82;;;2.40;99.80;;;;;;5021397;28;20246;-87
2020/12/05 07:40:38;;;;;;;31.52;16.58;;;2.40;99.80;;;;;;5027584;28;20312;-86
2020/12/05 07:43:14;;;;;;;29.30;16.50;;;2.40;99.80;;;;;;5022493;28;20664;-86
2020/12/05 07:45:41;;;;;;;31.95;16.90;;;2.40;99.80;;;;;;5040403;28;20586;-86
2020/12/05 07:48:12;;;;;;;31.58;16.70;;;2.40;99.80;;;;;;5034866;28;20217;-86
2020/12/05 07:50:39;;;;;;;30.48;15.82;;;2.40;99.80;;;;;;5036691;28;20710;-86
2020/12/05 07:53:24;;;;;;;31.95;16.38;;;2.40;99.80;;;;;;5037575;28;20231;-86
2020/12/05 07:55:52;;;;;;;34.30;16.02;;;2.30;99.80;;;;;;5039628;28;20340;-86
2020/12/05 07:58:19;;;;;;;26.65;15.77;;;2.30;99.80;;;;;;5042061;28;20235;-86
2020/12/05 08:00:46;;;;;;;34.00;17.17;;;2.40;99.80;;;;;;5035921;28;20233;-86
2020/12/05 08:03:38;;;;;;;28.40;16.58;;;2.40;99.80;;;;;;5034833;28;20233;-87
2020/12/05 08:06:11;;;;;;;27.15;15.30;;;2.40;99.80;;;;;;5027637;28;20256;-86
2020/12/05 08:08:40;;;;;;;43.03;17.45;;;2.40;99.80;;;;;;5007825;28;20233;-87
2020/12/05 08:11:11;;;;;;;40.35;18.33;;;2.40;99.80;;;;;;5008282;28;20225;-86
2020/12/05 08:13:39;;;;;;;31.88;15.57;;;2.40;99.80;;;;;;5030813;28;20227;-86
2020/12/05 08:16:07;;;;;;;31.08;15.48;;;2.50;99.80;;;;;;5020361;28;20230;-86
2020/12/05 08:18:37;;;;;;;25.85;15.90;;;2.50;99.80;;;;;;5026738;28;20907;-86
2020/12/05 08:21:06;;;;;;;25.40;17.25;;;2.50;99.80;;;;;;5044211;28;20221;-86
2020/12/05 08:23:37;;;;;;;30.27;15.77;;;2.50;99.80;;;;;;5038434;28;20227;-87
2020/12/05 08:26:06;;;;;;;25.30;15.05;;;2.50;99.80;;;;;;5031149;28;20255;-87
2020/12/05 08:28:37;;;;;;;24.65;14.60;;;2.50;99.80;;;;;;5040212;28;20639;-87
2020/12/05 08:31:06;;;;;;;28.92;15.30;;;2.50;99.80;;;;;;5042324;28;20225;-87
2020/12/05 08:33:42;;;;;;;31.33;15.98;;;2.50;99.80;;;;;;5036847;28;20730;-86
2020/12/05 08:36:18;;;;;;;27.20;15.73;;;2.50;99.80;;;;;;5044410;28;20693;-87
2020/12/05 08:38:46;;;;;;;38.72;18.45;;;2.50;99.80;;;;;;5014610;28;20947;-87
2020/12/05 08:41:13;;;;;;;29.65;17.13;;;2.60;99.80;;;;;;5023845;28;20224;-87
2020/12/05 08:43:40;;;;;;;33.95;18.02;;;2.60;99.80;;;;;;5019888;28;20679;-86
2020/12/05 08:46:20;;;;;;;30.95;18.23;;;2.60;99.80;;;;;;5033597;28;20289;-87
2020/12/05 08:48:49;;;;;;;31.75;17.50;;;2.70;99.80;;;;;;5023621;28;20228;-86
2020/12/05 08:51:17;;;;;;;34.33;17.52;;;2.70;99.80;;;;;;5041422;28;20259;-86
2020/12/05 08:53:44;;;;;;;29.80;17.50;;;2.80;99.80;;;;;;5037173;28;20230;-87
2020/12/05 08:56:20;;;;;;;28.48;16.17;;;2.80;99.80;;;;;;5046004;28;20222;-86
2020/12/05 08:58:48;;;;;;;27.95;16.20;;;2.90;99.80;;;;;;5039801;28;20243;-86
2020/12/05 09:01:15;;;;;;;38.65;18.73;;;2.90;99.80;;;;;;5047440;28;20232;-86
2020/12/05 09:03:42;;;;;;;34.83;17.20;;;2.90;99.80;;;;;;5041990;28;20227;-87
2020/12/05 09:06:10;;;;;;;28.90;16.27;;;2.90;99.80;;;;;;5047121;28;20230;-86
2020/12/05 09:08:44;;;;;;;32.50;19.10;;;2.80;99.80;;;;;;5035142;28;20241;-86
2020/12/05 09:11:20;;;;;;;29.35;18.13;;;2.80;99.80;;;;;;5041686;28;20696;-87
2020/12/05 09:13:47;;;;;;;29.95;15.88;;;2.80;99.80;;;;;;5031306;28;20634;-86
2020/12/05 09:16:14;;;;;;;26.40;14.63;;;2.80;99.80;;;;;;5024666;28;20232;-87
2020/12/05 09:18:43;;;;;;;29.23;17.38;;;2.80;99.80;;;;;;5045685;28;20283;-87
2020/12/05 09:21:15;;;;;;;40.08;17.77;;;2.90;99.80;;;;;;5018588;28;20232;-87
2020/12/05 09:23:43;;;;;;;38.53;17.75;;;3.00;99.80;;;;;;5010940;28;20229;-86
2020/12/05 09:26:10;;;;;;;29.67;16.05;;;3.10;99.80;;;;;;5008651;28;20229;-87
2020/12/05 09:28:37;;;;;;;30.15;15.82;;;3.10;99.80;;;;;;5042691;28;20228;-86
2020/12/05 09:31:06;;;;;;;32.85;17.27;;;3.10;99.80;;;;;;5020507;28;20225;-86
2020/12/05 09:33:35;;;;;;;32.00;15.50;;;3.10;99.80;;;;;;5038488;28;20585;-86
2020/12/05 09:36:03;;;;;;;34.35;16.05;;;3.20;99.80;;;;;;5051998;28;20230;-86
2020/12/05 09:38:31;;;;;;;29.00;17.35;;;3.10;99.80;;;;;;5038584;28;20221;-86
2020/12/05 09:40:58;;;;;;;31.25;18.13;;;3.10;99.80;;;;;;5028364;28;20255;-87
2020/12/05 09:43:25;;;;;;;34.03;15.75;;;3.10;99.80;;;;;;5031614;28;20216;-86
2020/12/05 09:45:53;;;;;;;35.25;17.60;;;3.10;99.80;;;;;;5006273;28;20244;-86
2020/12/05 09:48:20;;;;;;;34.33;16.65;;;3.10;99.80;;;;;;5034671;28;20229;-88
2020/12/05 09:50:47;;;;;;;33.00;17.17;;;3.20;99.80;;;;;;5034378;28;20249;-86
2020/12/05 09:53:14;;;;;;;34.33;17.38;;;3.30;99.80;;;;;;5024452;28;20225;-86
2020/12/05 09:55:42;;;;;;;38.05;19.67;;;3.40;99.80;;;;;;5015459;28;20892;-85
2020/12/05 09:58:09;;;;;;;31.95;17.73;;;3.50;99.80;;;;;;5016251;28;20231;-87
2020/12/05 10:00:36;;;;;;;45.95;19.55;;;3.60;99.80;;;;;;5019957;28;20233;-85
2020/12/05 10:03:04;;;;;;;35.55;18.38;;;3.70;99.80;;;;;;5048068;28;20224;-86
2020/12/05 10:05:31;;;;;;;51.13;28.88;;;3.80;99.80;;;;;;5047877;28;20734;-86
2020/12/05 10:07:58;;;;;;;112.00;53.08;;;3.80;99.80;;;;;;5048980;28;20666;-86
2020/12/05 10:10:25;;;;;;;178.60;85.82;;;3.80;99.80;;;;;;5048011;28;20230;-86
2020/12/05 10:12:53;;;;;;;81.22;41.50;;;3.90;99.80;;;;;;5048957;28;20235;-86
2020/12/05 10:15:20;;;;;;;44.65;25.05;;;3.90;99.80;;;;;;5049281;28;20224;-86
2020/12/05 10:17:48;;;;;;;37.35;19.40;;;4.10;99.80;;;;;;5046543;28;20241;-86
2020/12/05 10:20:15;;;;;;;35.88;20.17;;;4.10;99.80;;;;;;5040204;28;20225;-87
2020/12/05 10:22:42;;;;;;;39.33;20.10;;;4.20;99.80;;;;;;5018037;28;20235;-86
2020/12/05 10:25:09;;;;;;;42.10;18.98;;;4.40;99.80;;;;;;5016749;28;20232;-87
2020/12/05 10:27:38;;;;;;;32.20;16.80;;;4.60;99.80;;;;;;5041236;28;20789;-87
2020/12/05 10:30:07;;;;;;;37.70;18.52;;;4.80;99.80;;;;;;5012485;28;20231;-86
2020/12/05 10:32:34;;;;;;;40.55;19.85;;;4.90;99.80;;;;;;5032387;28;20232;-87
2020/12/05 10:35:01;;;;;;;35.10;18.10;;;5.00;99.80;;;;;;5047771;28;20270;-86
2020/12/05 10:37:28;;;;;;;41.22;18.95;;;5.10;99.80;;;;;;5048610;28;20226;-86
2020/12/05 10:39:55;;;;;;;28.70;18.08;;;5.00;99.80;;;;;;5052363;28;20313;-86
2020/12/05 10:42:24;;;;;;;41.08;20.65;;;5.00;99.80;;;;;;5060080;28;20252;-86
2020/12/05 10:44:51;;;;;;;32.28;18.35;;;4.70;99.80;;;;;;5039660;28;20231;-86
2020/12/05 10:47:19;;;;;;;38.05;19.92;;;4.60;99.80;;;;;;5044814;28;20235;-86
2020/12/05 10:49:47;;;;;;;38.00;20.13;;;4.40;99.80;;;;;;5047749;28;20236;-86
2020/12/05 10:52:14;;;;;;;34.95;21.20;;;4.20;99.80;;;;;;5047645;28;20311;-86
2020/12/05 10:54:41;;;;;;;35.45;19.73;;;4.20;99.80;;;;;;5015307;28;20226;-87
2020/12/05 10:57:08;;;;;;;35.65;21.25;;;4.10;99.80;;;;;;5018995;28;20229;-87
2020/12/05 10:59:36;;;;;;;29.20;18.90;;;4.20;99.80;;;;;;5029141;28;20277;-87
2020/12/05 11:02:03;;;;;;;32.35;17.40;;;4.20;99.80;;;;;;5055531;28;20301;-86
2020/12/05 11:04:31;;;;;;;35.63;19.73;;;4.30;99.80;;;;;;5057792;28;20711;-86
2020/12/05 11:06:59;;;;;;;33.28;18.52;;;4.40;99.80;;;;;;5037616;28;20230;-87
2020/12/05 11:09:26;;;;;;;31.88;16.33;;;4.30;99.80;;;;;;5022735;28;20232;-87
2020/12/05 11:11:52;;;;;;;29.83;16.05;;;4.50;99.80;;;;;;5006883;28;20749;-86
2020/12/05 11:14:20;;;;;;;29.33;16.70;;;4.60;99.80;;;;;;5022953;28;20228;-87
2020/12/05 11:16:49;;;;;;;31.88;17.90;;;4.60;99.80;;;;;;5014464;28;20322;-88
2020/12/05 11:19:16;;;;;;;34.17;18.05;;;4.70;99.80;;;;;;5046295;28;20230;-87
2020/12/05 11:21:45;;;;;;;32.00;16.10;;;4.80;99.80;;;;;;5046617;28;20230;-88
2020/12/05 11:24:12;;;;;;;29.73;17.38;;;4.90;99.80;;;;;;5047544;28;20229;-86
2020/12/05 11:26:39;;;;;;;26.45;15.30;;;4.90;99.80;;;;;;5010002;28;20236;-86
2020/12/05 11:29:06;;;;;;;22.73;14.20;;;4.90;99.80;;;;;;5026402;28;20235;-86
2020/12/05 11:31:33;;;;;;;29.98;15.32;;;4.90;99.80;;;;;;5025130;28;20306;-86
2020/12/05 11:34:01;;;;;;;29.73;17.13;;;4.90;99.80;;;;;;5029066;28;20725;-87
2020/12/05 11:36:28;;;;;;;25.88;15.05;;;5.00;99.80;;;;;;5029125;28;20694;-87
2020/12/05 11:38:55;;;;;;;23.88;14.90;;;5.00;99.80;;;;;;5017945;28;20311;-87
2020/12/05 11:41:22;;;;;;;25.65;15.50;;;5.00;99.80;;;;;;5018295;28;20733;-87
2020/12/05 11:43:49;;;;;;;31.10;15.27;;;4.90;99.80;;;;;;5034024;28;20234;-88
2020/12/05 11:46:16;;;;;;;26.38;15.55;;;4.90;99.80;;;;;;5031438;28;20229;-87
2020/12/05 11:48:43;;;;;;;23.92;15.30;;;5.00;99.80;;;;;;5049662;28;20852;-86
2020/12/05 11:51:11;;;;;;;28.13;16.00;;;5.00;99.80;;;;;;5044492;28;20691;-86
2020/12/05 11:53:38;;;;;;;20.27;13.73;;;5.00;99.80;;;;;;5044568;28;20227;-86
2020/12/05 11:56:06;;;;;;;26.33;15.13;;;5.00;99.80;;;;;;5041044;28;20260;-86
2020/12/05 11:58:33;;;;;;;23.40;14.40;;;4.90;99.80;;;;;;5018158;28;20226;-86
2020/12/05 12:01:04;;;;;;;22.42;15.00;;;4.90;99.80;;;;;;5028050;28;20220;-86
2020/12/05 12:03:32;;;;;;;26.77;15.75;;;4.80;99.80;;;;;;5033576;28;20591;-86
2020/12/05 12:05:59;;;;;;;23.25;13.65;;;4.90;99.80;;;;;;5045682;28;20315;-86
2020/12/05 12:08:26;;;;;;;33.17;18.85;;;4.90;99.80;;;;;;5014706;28;20251;-87
2020/12/05 12:10:53;;;;;;;23.77;15.95;;;5.00;99.80;;;;;;5026978;28;20235;-86
2020/12/05 12:13:21;;;;;;;24.00;15.52;;;5.10;99.80;;;;;;5028669;28;20313;-86
2020/12/05 12:15:48;;;;;;;21.67;15.30;;;5.10;99.80;;;;;;5001612;28;20746;-87
2020/12/05 12:18:15;;;;;;;22.90;16.30;;;5.20;99.80;;;;;;5022047;28;20241;-86
2020/12/05 12:20:42;;;;;;;22.30;14.70;;;5.10;99.80;;;;;;5042279;28;20224;-86
2020/12/05 12:23:09;;;;;;;19.20;13.90;;;5.10;99.80;;;;;;5045935;28;20740;-86
2020/12/05 12:25:36;;;;;;;26.55;13.77;;;5.10;99.80;;;;;;5047101;28;20232;-86
2020/12/05 12:28:03;;;;;;;26.35;13.98;;;5.10;99.80;;;;;;5046083;28;20436;-86
2020/12/05 12:30:31;;;;;;;22.00;13.65;;;5.20;99.80;;;;;;5032594;28;20719;-86
2020/12/05 12:32:58;;;;;;;22.13;12.60;;;5.30;99.80;;;;;;5046080;28;20317;-86
2020/12/05 12:35:25;;;;;;;21.02;14.45;;;5.30;99.80;;;;;;5041714;28;20219;-86
2020/12/05 12:37:52;;;;;;;27.67;15.25;;;5.40;99.80;;;;;;5024626;28;20378;-86
2020/12/05 12:40:19;;;;;;;21.33;13.55;;;5.40;99.80;;;;;;5027977;28;20251;-86
2020/12/05 12:42:46;;;;;;;18.48;11.75;;;5.40;99.80;;;;;;5012652;28;20239;-86
2020/12/05 12:45:15;;;;;;;18.48;12.65;;;5.40;99.80;;;;;;5013810;28;20236;-86
2020/12/05 12:47:55;;;;;;;17.42;11.68;;;5.40;99.80;;;;;;5029607;28;20221;-86